Terminal Aerodrome Forecast
Issued by NWS

Home | Current Version | Previous Version | Text Only | Print | Product List | Glossary On
Versions: 1 2 3 4 5 6 7 8 9 10 11 12 13 14 15 16
000
FTUS45 KABQ 281700
TAFTCC
TAF
KTCC 281739Z 2818/2918 12011KT P6SM SCT040 BKN100
     FM282100 13011KT P6SM SCT070 BKN200
     FM290100 13010KT P6SM VCSH BKN070
     FM290400 16011KT P6SM VCTS BKN040CB OVC100
     FM290700 VRB05KT P6SM -RA BKN030 OVC050
     FM291400 20006KT P6SM BKN015
     FM291700 20015KT P6SM SCT040 BKN100=

USA.gov is the U.S. government's official web portal to all federal, state and local government web resources and services.